Ora, Mississippi
Current Conditions -  °F | °C
As of 2:15 PM on Sunday 23 Nov 2014 (Local Time) from KPIB Reporting Station
Overcast Overcast  
Wind Chill: 66°   Ceiling: 3300
Heat Index: 66°   Visibility: 10mi
Dew Point: 57°   Wind: 16mph
Humidity: 73%   Direction: 210°SSW
Pressure: 29.59"   Gusts: 24mph
Location:  31.6692°N, 89.543°W
Report Text: KPIB 232015Z AUTO 21014G21KT 10SM FEW026 BKN033 OVC041 19/14 A2959 RMK AO1
Loading
Personal Weather Stations






























Interactive Weather Map New forecast layout! Learn more

10-Day Weather Forecast

Advertisements
Track Severe Weather on mobile